createdAt,value
2023-03-04T00:03:52.978Z,0.80
2023-03-04T00:08:54.678Z,0.79
2023-03-04T00:13:57.172Z,0.88
2023-03-04T00:18:58.943Z,0.77
2023-03-04T00:24:00.757Z,0.68
2023-03-04T00:29:02.390Z,0.84
2023-03-04T00:34:04.151Z,0.91
2023-03-04T00:39:06.035Z,0.77
2023-03-04T00:44:07.768Z,0.86
2023-03-04T00:49:09.392Z,0.75
2023-03-04T00:54:11.088Z,0.74
2023-03-04T00:59:12.804Z,0.82
2023-03-04T01:04:14.454Z,0.91
2023-03-04T01:09:16.107Z,0.80
2023-03-04T01:14:17.799Z,0.78
2023-03-04T01:19:19.880Z,0.84
2023-03-04T01:24:21.526Z,0.78
2023-03-04T01:29:23.304Z,0.87
2023-03-04T01:34:25.020Z,0.96
2023-03-04T01:39:26.718Z,0.92
2023-03-04T01:44:28.567Z,0.74
2023-03-04T01:49:30.886Z,0.91
2023-03-04T01:54:32.607Z,0.80
2023-03-04T01:59:34.284Z,0.78
2023-03-04T02:04:36.013Z,1.00
2023-03-04T02:09:37.732Z,0.87
2023-03-04T02:14:39.624Z,0.85
2023-03-04T02:19:49.789Z,0.96
2023-03-04T02:25:03.444Z,0.97
2023-03-04T02:30:06.249Z,0.91
2023-03-04T02:35:14.590Z,0.90
2023-03-04T02:40:24.854Z,0.83
2023-03-04T02:45:40.666Z,0.92
2023-03-04T02:50:47.372Z,0.91
2023-03-04T02:55:49.464Z,0.89
2023-03-04T03:00:51.999Z,0.80
2023-03-04T03:05:54.320Z,0.89
2023-03-04T03:10:56.259Z,1.04
2023-03-04T03:15:59.166Z,1.03
2023-03-04T03:21:01.007Z,1.02
2023-03-04T03:26:03.880Z,0.98
2023-03-04T03:31:06.628Z,0.86
2023-03-04T03:36:09.022Z,0.89
2023-03-04T03:41:10.866Z,0.90
2023-03-04T03:46:12.668Z,0.87
2023-03-04T03:51:14.335Z,0.90
2023-03-04T03:56:16.005Z,0.76
2023-03-04T04:01:17.653Z,0.80
2023-03-04T04:06:19.438Z,0.85
2023-03-04T04:11:21.504Z,0.78
2023-03-04T04:16:23.254Z,0.75
2023-03-04T04:21:24.957Z,0.84
2023-03-04T04:26:26.674Z,0.86
2023-03-04T04:31:28.319Z,0.94
2023-03-04T04:36:30.047Z,0.95
2023-03-04T04:41:36.800Z,0.93
2023-03-04T04:46:39.491Z,0.89
2023-03-04T04:51:41.239Z,0.80
2023-03-04T04:56:43.134Z,1.01
2023-03-04T05:01:44.890Z,0.99
2023-03-04T05:06:46.584Z,0.99
2023-03-04T05:11:48.373Z,1.03
2023-03-04T05:16:50.298Z,1.07
2023-03-04T05:21:51.949Z,1.04
2023-03-04T05:26:53.755Z,1.16
2023-03-04T05:31:55.606Z,1.18
2023-03-04T05:36:57.332Z,1.19
2023-03-04T05:41:58.999Z,1.20
2023-03-04T05:47:00.711Z,1.19
2023-03-04T05:52:02.378Z,1.33
2023-03-04T05:57:04.142Z,1.22
2023-03-04T06:02:05.779Z,1.28
2023-03-04T06:07:07.459Z,1.31
2023-03-04T06:12:09.098Z,1.36
2023-03-04T06:17:10.759Z,1.37
2023-03-04T06:22:12.645Z,1.43
2023-03-04T06:27:14.350Z,1.38
2023-03-04T06:32:16.019Z,1.39
2023-03-04T06:37:17.970Z,1.39
2023-03-04T06:42:19.639Z,1.44
2023-03-04T06:47:21.485Z,1.37
2023-03-04T06:52:23.168Z,1.33
2023-03-04T06:57:24.893Z,1.42
2023-03-04T07:02:26.515Z,1.41
2023-03-04T07:07:28.191Z,1.49
2023-03-04T07:12:29.992Z,1.50
2023-03-04T07:17:31.605Z,1.53
2023-03-04T07:22:33.224Z,1.51
2023-03-04T07:27:35.006Z,1.62
2023-03-04T07:32:36.783Z,1.66
2023-03-04T07:37:40.245Z,1.60
2023-03-04T07:42:41.951Z,1.67
2023-03-04T07:47:47.146Z,1.65
2023-03-04T07:52:51.001Z,1.85
2023-03-04T07:57:52.640Z,1.87
2023-03-04T08:02:54.283Z,1.82
2023-03-04T08:07:57.971Z,2.00
2023-03-04T08:12:59.904Z,2.09
2023-03-04T08:18:02.461Z,2.14
2023-03-04T08:23:04.284Z,2.28
2023-03-04T08:28:06.773Z,2.47
2023-03-04T08:33:09.664Z,2.34
2023-03-04T08:38:11.370Z,2.39
2023-03-04T08:43:13.138Z,2.53
2023-03-04T08:48:15.161Z,2.59
2023-03-04T08:53:21.602Z,2.67
2023-03-04T08:58:23.381Z,2.68
2023-03-04T09:03:25.090Z,2.69
2023-03-04T09:08:26.912Z,2.81
2023-03-04T09:13:30.872Z,2.86
2023-03-04T09:18:32.742Z,2.81
2023-03-04T09:23:42.355Z,2.97
2023-03-04T09:28:48.111Z,2.93
2023-03-04T09:33:52.492Z,3.10
2023-03-04T09:44:43.431Z,3.26
2023-03-04T09:49:56.760Z,3.20
2023-03-04T09:55:07.476Z,3.32
2023-03-04T10:00:13.597Z,3.11
2023-03-04T10:05:24.839Z,3.28
2023-03-04T10:10:40.477Z,3.40
2023-03-04T10:15:53.836Z,3.67
2023-03-04T10:21:07.586Z,3.64
2023-03-04T10:26:21.253Z,3.52
2023-03-04T10:31:36.678Z,3.62
2023-03-04T10:36:55.578Z,3.69
2023-03-04T10:42:07.017Z,3.87
2023-03-04T10:47:12.003Z,3.75
2023-03-04T10:52:41.312Z,3.96
2023-03-04T10:57:45.004Z,4.08
2023-03-04T11:02:51.823Z,3.77
2023-03-04T11:07:57.464Z,3.74
2023-03-04T11:13:12.316Z,3.70
2023-03-04T11:18:28.217Z,3.73
2023-03-04T11:23:51.675Z,3.86
2023-03-04T11:29:01.466Z,4.11
2023-03-04T11:34:14.333Z,4.11
2023-03-04T11:39:27.048Z,4.12
2023-03-04T11:44:30.646Z,3.99
2023-03-04T11:49:53.275Z,4.02
2023-03-04T11:55:00.719Z,4.07
2023-03-04T12:00:29.493Z,4.25
2023-03-04T12:05:46.360Z,4.33
2023-03-04T12:10:52.938Z,4.46
2023-03-04T12:16:06.674Z,4.39
2023-03-04T12:21:24.560Z,4.32
2023-03-04T12:26:26.248Z,4.47
2023-03-04T12:31:50.590Z,4.72
2023-03-04T12:37:12.101Z,4.78
2023-03-04T12:42:39.774Z,4.89
2023-03-04T12:47:55.181Z,4.88
2023-03-04T12:53:10.451Z,4.78
2023-03-04T12:58:19.476Z,4.91
2023-03-04T13:03:30.598Z,4.90
2023-03-04T13:08:41.502Z,4.95
2023-03-04T13:13:43.153Z,5.02
2023-03-04T13:18:45.103Z,4.79
2023-03-04T13:23:46.944Z,4.88
2023-03-04T13:29:16.079Z,5.00
2023-03-04T13:34:59.104Z,5.04
2023-03-04T13:40:27.418Z,5.17
2023-03-04T13:45:40.127Z,5.27
2023-03-04T13:50:48.438Z,5.39
2023-03-04T13:56:08.750Z,5.45
2023-03-04T14:01:31.637Z,5.59
2023-03-04T14:06:33.231Z,5.57
2023-03-04T14:11:42.305Z,5.57
2023-03-04T14:17:01.922Z,5.53
2023-03-04T14:22:03.674Z,5.68
2023-03-04T14:27:14.911Z,5.46
2023-03-04T14:32:19.769Z,5.56
2023-03-04T14:37:24.670Z,5.56
2023-03-04T14:42:36.850Z,5.66
2023-03-04T14:47:46.574Z,5.81
2023-03-04T14:52:53.315Z,5.64
2023-03-04T14:58:10.289Z,5.54
2023-03-04T15:03:30.207Z,5.28
2023-03-04T15:08:37.326Z,5.28
2023-03-04T15:13:46.439Z,5.19
2023-03-04T15:19:24.573Z,5.15
2023-03-04T15:24:26.184Z,5.15
2023-03-04T15:29:29.252Z,5.19
2023-03-04T15:34:31.499Z,5.03
2023-03-04T15:39:33.492Z,4.98
2023-03-04T15:44:35.574Z,4.95
2023-03-04T15:49:37.448Z,4.82
2023-03-04T15:54:39.402Z,4.86
2023-03-04T15:59:41.702Z,4.67
2023-03-04T16:04:43.640Z,4.66
2023-03-04T16:09:47.028Z,4.80
2023-03-04T16:14:50.088Z,4.73
2023-03-04T16:19:52.029Z,4.64
2023-03-04T16:24:55.472Z,4.56
2023-03-04T16:29:57.584Z,4.49
2023-03-04T16:34:59.303Z,4.41
2023-03-04T16:40:01.329Z,4.40
2023-03-04T16:45:03.389Z,4.57
2023-03-04T16:50:05.373Z,4.59
2023-03-04T16:55:15.012Z,4.34
2023-03-04T17:00:19.142Z,4.32
2023-03-04T17:05:24.261Z,3.99
2023-03-04T17:10:26.798Z,3.94
2023-03-04T17:15:28.635Z,3.83
2023-03-04T17:20:30.554Z,3.75
2023-03-04T17:25:32.540Z,3.79
2023-03-04T17:30:34.709Z,3.85
2023-03-04T17:35:39.918Z,3.80
2023-03-04T17:40:42.415Z,3.77
2023-03-04T17:45:44.602Z,3.76
2023-03-04T17:50:51.139Z,3.79
2023-03-04T17:56:00.335Z,3.66
2023-03-04T18:01:17.784Z,3.59
2023-03-04T18:06:20.494Z,3.68
2023-03-04T18:11:24.797Z,3.48
2023-03-04T18:16:29.055Z,3.56
2023-03-04T18:21:31.523Z,3.57
2023-03-04T18:26:33.419Z,3.60
2023-03-04T18:31:37.219Z,3.46
2023-03-04T18:36:39.520Z,3.61
2023-03-04T18:41:41.709Z,3.66
2023-03-04T18:46:45.659Z,3.51
2023-03-04T18:51:47.836Z,3.39
2023-03-04T18:56:58.232Z,3.67
2023-03-04T19:02:06.497Z,3.45
2023-03-04T19:07:08.367Z,3.51
2023-03-04T19:12:10.777Z,3.59
2023-03-04T19:17:12.942Z,3.33
2023-03-04T19:22:14.966Z,3.45
2023-03-04T19:27:16.941Z,3.36
2023-03-04T19:32:19.332Z,3.25
2023-03-04T19:37:21.682Z,3.26
2023-03-04T19:42:24.208Z,3.32
2023-03-04T19:47:26.163Z,3.40
2023-03-04T19:52:27.965Z,3.24
2023-03-04T19:57:29.913Z,3.10
2023-03-04T20:02:31.616Z,3.22
2023-03-04T20:07:33.375Z,3.19
2023-03-04T20:12:36.290Z,3.20
2023-03-04T20:17:38.033Z,3.10
2023-03-04T20:22:39.882Z,3.00
2023-03-04T20:27:41.492Z,3.04
2023-03-04T20:32:43.189Z,2.88
2023-03-04T20:37:45.122Z,2.96
2023-03-04T20:42:47.106Z,3.14
2023-03-04T20:47:49.884Z,3.02
2023-03-04T20:52:52.315Z,2.92
2023-03-04T20:57:54.588Z,3.02
2023-03-04T21:02:56.715Z,3.04
2023-03-04T21:08:01.397Z,2.95
2023-03-04T21:13:03.144Z,2.97
2023-03-04T21:18:04.762Z,2.95
2023-03-04T21:23:06.432Z,2.96
2023-03-04T21:28:08.032Z,2.76
2023-03-04T21:33:19.328Z,2.84
2023-03-04T21:38:21.086Z,2.76
2023-03-04T21:43:23.778Z,2.86
2023-03-04T21:48:26.011Z,2.90
2023-03-04T21:53:28.779Z,2.92
2023-03-04T21:58:30.962Z,2.88
2023-03-04T22:03:32.604Z,2.85
2023-03-04T22:08:34.423Z,2.70
2023-03-04T22:13:37.301Z,2.79
2023-03-04T22:18:40.799Z,2.87
2023-03-04T22:23:42.973Z,2.77
2023-03-04T22:28:45.379Z,2.76
2023-03-04T22:33:47.767Z,2.75
2023-03-04T22:38:49.477Z,2.65
2023-03-04T22:43:51.229Z,2.80
2023-03-04T22:48:55.664Z,2.77
2023-03-04T22:53:57.924Z,2.64
2023-03-04T22:58:59.540Z,2.69
2023-03-04T23:04:01.415Z,2.67
2023-03-04T23:09:04.056Z,2.62
2023-03-04T23:14:07.902Z,2.49
2023-03-04T23:19:17.433Z,2.57
2023-03-04T23:24:20.152Z,2.51
2023-03-04T23:29:21.887Z,2.57
2023-03-04T23:34:23.727Z,2.58
2023-03-04T23:39:25.403Z,2.46
2023-03-04T23:44:27.233Z,2.53
2023-03-04T23:49:28.897Z,2.38
2023-03-04T23:54:31.340Z,2.43
2023-03-04T23:59:33.074Z,2.13
